sensor_id;sensor_type;location;lat;lon;timestamp;temperature;humidity
17986;DHT22;9118;48.122;11.546;2023-08-07T00:02:07;12.80;99.90
17986;DHT22;9118;48.122;11.546;2023-08-07T00:04:34;12.90;99.90
17986;DHT22;9118;48.122;11.546;2023-08-07T00:07:01;12.80;99.90
17986;DHT22;9118;48.122;11.546;2023-08-07T00:09:28;12.80;99.90
17986;DHT22;9118;48.122;11.546;2023-08-07T00:11:55;12.80;99.90
17986;DHT22;9118;48.122;11.546;2023-08-07T00:14:23;12.80;99.90
17986;DHT22;9118;48.122;11.546;2023-08-07T00:16:50;12.70;99.90
17986;DHT22;9118;48.122;11.546;2023-08-07T00:19:17;12.70;99.90
17986;DHT22;9118;48.122;11.546;2023-08-07T00:21:44;12.70;99.90
17986;DHT22;9118;48.122;11.546;2023-08-07T00:24:11;12.60;99.90
17986;DHT22;9118;48.122;11.546;2023-08-07T00:26:38;12.50;99.90
17986;DHT22;9118;48.122;11.546;2023-08-07T00:29:05;12.50;99.90
17986;DHT22;9118;48.122;11.546;2023-08-07T00:31:33;12.50;99.90
17986;DHT22;9118;48.122;11.546;2023-08-07T00:34:00;12.50;99.90
17986;DHT22;9118;48.122;11.546;2023-08-07T00:36:28;12.50;99.90
17986;DHT22;9118;48.122;11.546;2023-08-07T00:38:55;12.60;99.90
17986;DHT22;9118;48.122;11.546;2023-08-07T00:41:22;12.50;99.90
17986;DHT22;9118;48.122;11.546;2023-08-07T00:43:49;12.50;99.90
17986;DHT22;9118;48.122;11.546;2023-08-07T00:46:16;12.50;99.90
17986;DHT22;9118;48.122;11.546;2023-08-07T00:48:45;12.30;99.90
17986;DHT22;9118;48.122;11.546;2023-08-07T00:51:12;12.30;99.90
17986;DHT22;9118;48.122;11.546;2023-08-07T00:53:40;12.30;99.90
17986;DHT22;9118;48.122;11.546;2023-08-07T00:56:07;12.20;99.90
17986;DHT22;9118;48.122;11.546;2023-08-07T00:58:34;12.00;99.90
17986;DHT22;9118;48.122;11.546;2023-08-07T01:01:03;11.90;99.90
17986;DHT22;9118;48.122;11.546;2023-08-07T01:03:30;11.90;99.90
17986;DHT22;9118;48.122;11.546;2023-08-07T01:05:58;12.00;99.90
17986;DHT22;9118;48.122;11.546;2023-08-07T01:08:25;12.00;99.90
17986;DHT22;9118;48.122;11.546;2023-08-07T01:11:07;11.80;99.90
17986;DHT22;9118;48.122;11.546;2023-08-07T01:13:50;11.80;99.90
17986;DHT22;9118;48.122;11.546;2023-08-07T01:16:26;11.70;99.90
17986;DHT22;9118;48.122;11.546;2023-08-07T01:18:54;11.70;99.90
17986;DHT22;9118;48.122;11.546;2023-08-07T01:21:23;11.60;99.90
17986;DHT22;9118;48.122;11.546;2023-08-07T01:23:53;11.50;99.90
17986;DHT22;9118;48.122;11.546;2023-08-07T01:26:21;11.60;99.90
17986;DHT22;9118;48.122;11.546;2023-08-07T01:28:56;11.50;99.90
17986;DHT22;9118;48.122;11.546;2023-08-07T01:31:24;11.50;99.90
17986;DHT22;9118;48.122;11.546;2023-08-07T01:33:57;11.50;99.90
17986;DHT22;9118;48.122;11.546;2023-08-07T01:36:27;11.50;99.90
17986;DHT22;9118;48.122;11.546;2023-08-07T01:38:57;11.40;99.90
17986;DHT22;9118;48.122;11.546;2023-08-07T01:41:27;11.40;99.90
17986;DHT22;9118;48.122;11.546;2023-08-07T01:43:54;11.40;99.90
17986;DHT22;9118;48.122;11.546;2023-08-07T01:46:21;11.40;99.90
17986;DHT22;9118;48.122;11.546;2023-08-07T01:48:48;11.40;99.90
17986;DHT22;9118;48.122;11.546;2023-08-07T01:51:15;11.40;99.90
17986;DHT22;9118;48.122;11.546;2023-08-07T01:53:42;11.20;99.90
17986;DHT22;9118;48.122;11.546;2023-08-07T01:56:10;11.20;99.90
17986;DHT22;9118;48.122;11.546;2023-08-07T01:58:37;11.20;99.90
17986;DHT22;9118;48.122;11.546;2023-08-07T02:01:04;11.10;99.90
17986;DHT22;9118;48.122;11.546;2023-08-07T02:03:32;11.10;99.90
17986;DHT22;9118;48.122;11.546;2023-08-07T02:05:59;11.10;99.90
17986;DHT22;9118;48.122;11.546;2023-08-07T02:08:26;11.20;99.90
17986;DHT22;9118;48.122;11.546;2023-08-07T02:10:53;11.10;99.90
17986;DHT22;9118;48.122;11.546;2023-08-07T02:13:21;11.20;99.90
17986;DHT22;9118;48.122;11.546;2023-08-07T02:15:48;11.30;99.90
17986;DHT22;9118;48.122;11.546;2023-08-07T02:18:15;11.20;99.90
17986;DHT22;9118;48.122;11.546;2023-08-07T02:20:42;11.30;99.90
17986;DHT22;9118;48.122;11.546;2023-08-07T02:23:09;11.30;99.90
17986;DHT22;9118;48.122;11.546;2023-08-07T02:25:36;11.20;99.90
17986;DHT22;9118;48.122;11.546;2023-08-07T02:28:03;11.20;99.90
17986;DHT22;9118;48.122;11.546;2023-08-07T02:30:32;11.20;99.90
17986;DHT22;9118;48.122;11.546;2023-08-07T02:32:59;11.20;99.90
17986;DHT22;9118;48.122;11.546;2023-08-07T02:35:26;11.30;99.90
17986;DHT22;9118;48.122;11.546;2023-08-07T02:37:53;11.30;99.90
17986;DHT22;9118;48.122;11.546;2023-08-07T02:40:20;11.40;99.90
17986;DHT22;9118;48.122;11.546;2023-08-07T02:42:46;11.30;99.90
17986;DHT22;9118;48.122;11.546;2023-08-07T02:45:14;11.30;99.90
17986;DHT22;9118;48.122;11.546;2023-08-07T02:47:42;11.30;99.90
17986;DHT22;9118;48.122;11.546;2023-08-07T02:50:09;11.30;99.90
17986;DHT22;9118;48.122;11.546;2023-08-07T02:52:36;11.20;99.90
17986;DHT22;9118;48.122;11.546;2023-08-07T02:55:03;11.30;99.90
17986;DHT22;9118;48.122;11.546;2023-08-07T02:57:30;11.40;99.90
17986;DHT22;9118;48.122;11.546;2023-08-07T02:59:57;11.30;99.90
17986;DHT22;9118;48.122;11.546;2023-08-07T03:02:24;11.30;99.90
17986;DHT22;9118;48.122;11.546;2023-08-07T03:04:53;11.30;99.90
17986;DHT22;9118;48.122;11.546;2023-08-07T03:07:21;11.20;99.90
17986;DHT22;9118;48.122;11.546;2023-08-07T03:09:48;11.30;99.90
17986;DHT22;9118;48.122;11.546;2023-08-07T03:12:15;11.30;99.90
17986;DHT22;9118;48.122;11.546;2023-08-07T03:14:42;11.30;99.90
17986;DHT22;9118;48.122;11.546;2023-08-07T03:17:09;11.40;99.90
17986;DHT22;9118;48.122;11.546;2023-08-07T03:19:36;11.30;99.90
17986;DHT22;9118;48.122;11.546;2023-08-07T03:22:04;11.30;99.90
17986;DHT22;9118;48.122;11.546;2023-08-07T03:24:31;11.40;99.90
17986;DHT22;9118;48.122;11.546;2023-08-07T03:26:58;11.40;99.90
17986;DHT22;9118;48.122;11.546;2023-08-07T03:29:25;11.30;99.90
17986;DHT22;9118;48.122;11.546;2023-08-07T03:31:52;11.30;99.90
17986;DHT22;9118;48.122;11.546;2023-08-07T03:34:19;11.40;99.90
17986;DHT22;9118;48.122;11.546;2023-08-07T03:36:46;11.40;99.90
17986;DHT22;9118;48.122;11.546;2023-08-07T03:39:14;11.40;99.90
17986;DHT22;9118;48.122;11.546;2023-08-07T03:41:41;11.50;99.90
17986;DHT22;9118;48.122;11.546;2023-08-07T03:44:08;11.50;99.90
17986;DHT22;9118;48.122;11.546;2023-08-07T03:46:35;11.50;99.90
17986;DHT22;9118;48.122;11.546;2023-08-07T03:49:02;11.50;99.90
17986;DHT22;9118;48.122;11.546;2023-08-07T03:51:29;11.50;99.90
17986;DHT22;9118;48.122;11.546;2023-08-07T03:53:57;11.60;99.90
17986;DHT22;9118;48.122;11.546;2023-08-07T03:56:26;11.60;99.90
17986;DHT22;9118;48.122;11.546;2023-08-07T03:58:53;11.60;99.90
17986;DHT22;9118;48.122;11.546;2023-08-07T04:01:20;11.60;99.90
17986;DHT22;9118;48.122;11.546;2023-08-07T04:03:47;11.60;99.90
17986;DHT22;9118;48.122;11.546;2023-08-07T04:06:14;11.60;99.90
17986;DHT22;9118;48.122;11.546;2023-08-07T04:08:42;11.60;99.90
17986;DHT22;9118;48.122;11.546;2023-08-07T04:11:09;11.60;99.90
17986;DHT22;9118;48.122;11.546;2023-08-07T04:13:37;11.60;99.90
17986;DHT22;9118;48.122;11.546;2023-08-07T04:16:05;11.60;99.90
17986;DHT22;9118;48.122;11.546;2023-08-07T04:18:32;11.60;99.90
17986;DHT22;9118;48.122;11.546;2023-08-07T04:20:59;11.60;99.90
17986;DHT22;9118;48.122;11.546;2023-08-07T04:23:26;11.60;99.90
17986;DHT22;9118;48.122;11.546;2023-08-07T04:25:54;11.60;99.90
17986;DHT22;9118;48.122;11.546;2023-08-07T04:28:21;11.50;99.90
17986;DHT22;9118;48.122;11.546;2023-08-07T04:30:51;11.60;99.90
17986;DHT22;9118;48.122;11.546;2023-08-07T04:33:18;11.60;99.90
17986;DHT22;9118;48.122;11.546;2023-08-07T04:35:45;11.60;99.90
17986;DHT22;9118;48.122;11.546;2023-08-07T04:38:13;11.60;99.90
17986;DHT22;9118;48.122;11.546;2023-08-07T04:40:44;11.60;99.90
17986;DHT22;9118;48.122;11.546;2023-08-07T04:43:11;11.70;99.90
17986;DHT22;9118;48.122;11.546;2023-08-07T04:45:38;11.60;99.90
17986;DHT22;9118;48.122;11.546;2023-08-07T04:48:07;11.60;99.90
17986;DHT22;9118;48.122;11.546;2023-08-07T04:50:34;11.60;99.90
17986;DHT22;9118;48.122;11.546;2023-08-07T04:53:01;11.60;99.90
17986;DHT22;9118;48.122;11.546;2023-08-07T04:55:28;11.70;99.90
17986;DHT22;9118;48.122;11.546;2023-08-07T04:57:55;11.70;99.90
17986;DHT22;9118;48.122;11.546;2023-08-07T05:00:23;11.70;99.90
17986;DHT22;9118;48.122;11.546;2023-08-07T05:02:50;11.70;99.90
17986;DHT22;9118;48.122;11.546;2023-08-07T05:05:18;11.80;99.90
17986;DHT22;9118;48.122;11.546;2023-08-07T05:07:46;11.80;99.90
17986;DHT22;9118;48.122;11.546;2023-08-07T05:10:13;11.80;99.90
17986;DHT22;9118;48.122;11.546;2023-08-07T05:12:40;11.80;99.90
17986;DHT22;9118;48.122;11.546;2023-08-07T05:15:08;11.80;99.90
17986;DHT22;9118;48.122;11.546;2023-08-07T05:17:35;11.80;99.90
17986;DHT22;9118;48.122;11.546;2023-08-07T05:20:02;11.80;99.90
17986;DHT22;9118;48.122;11.546;2023-08-07T05:22:32;11.80;99.90
17986;DHT22;9118;48.122;11.546;2023-08-07T05:24:59;11.80;99.90
17986;DHT22;9118;48.122;11.546;2023-08-07T05:27:26;11.80;99.90
17986;DHT22;9118;48.122;11.546;2023-08-07T05:29:53;11.80;99.90
17986;DHT22;9118;48.122;11.546;2023-08-07T05:32:21;11.70;99.90
17986;DHT22;9118;48.122;11.546;2023-08-07T05:34:48;11.70;99.90
17986;DHT22;9118;48.122;11.546;2023-08-07T05:37:16;11.70;99.90
17986;DHT22;9118;48.122;11.546;2023-08-07T05:39:45;11.80;99.90
17986;DHT22;9118;48.122;11.546;2023-08-07T05:42:12;11.70;99.90
17986;DHT22;9118;48.122;11.546;2023-08-07T05:44:39;11.70;99.90
17986;DHT22;9118;48.122;11.546;2023-08-07T05:47:07;11.70;99.90
17986;DHT22;9118;48.122;11.546;2023-08-07T05:49:34;11.70;99.90
17986;DHT22;9118;48.122;11.546;2023-08-07T05:52:01;11.80;99.90
17986;DHT22;9118;48.122;11.546;2023-08-07T05:54:28;11.80;99.90
17986;DHT22;9118;48.122;11.546;2023-08-07T05:56:56;11.80;99.90
17986;DHT22;9118;48.122;11.546;2023-08-07T05:59:23;11.80;99.90
17986;DHT22;9118;48.122;11.546;2023-08-07T06:01:50;11.80;99.90
17986;DHT22;9118;48.122;11.546;2023-08-07T06:04:18;11.80;99.90
17986;DHT22;9118;48.122;11.546;2023-08-07T06:06:47;11.90;99.90
17986;DHT22;9118;48.122;11.546;2023-08-07T06:09:14;12.00;99.90
17986;DHT22;9118;48.122;11.546;2023-08-07T06:11:41;12.00;99.90
17986;DHT22;9118;48.122;11.546;2023-08-07T06:14:10;12.00;99.90
17986;DHT22;9118;48.122;11.546;2023-08-07T06:16:37;12.00;99.90
17986;DHT22;9118;48.122;11.546;2023-08-07T06:19:03;11.90;99.90
17986;DHT22;9118;48.122;11.546;2023-08-07T06:21:30;12.00;99.90
17986;DHT22;9118;48.122;11.546;2023-08-07T06:23:57;12.00;99.90
17986;DHT22;9118;48.122;11.546;2023-08-07T06:26:25;12.00;99.90
17986;DHT22;9118;48.122;11.546;2023-08-07T06:28:51;12.00;99.90
17986;DHT22;9118;48.122;11.546;2023-08-07T06:31:20;12.00;99.90
17986;DHT22;9118;48.122;11.546;2023-08-07T06:33:47;12.00;99.90
17986;DHT22;9118;48.122;11.546;2023-08-07T06:36:14;12.10;99.90
17986;DHT22;9118;48.122;11.546;2023-08-07T06:38:41;12.10;99.90
17986;DHT22;9118;48.122;11.546;2023-08-07T06:41:08;12.10;99.90
17986;DHT22;9118;48.122;11.546;2023-08-07T06:43:35;12.10;99.90
17986;DHT22;9118;48.122;11.546;2023-08-07T06:46:02;12.10;99.90
17986;DHT22;9118;48.122;11.546;2023-08-07T06:48:30;12.20;99.90
17986;DHT22;9118;48.122;11.546;2023-08-07T06:50:58;12.20;99.90
17986;DHT22;9118;48.122;11.546;2023-08-07T06:53:25;12.30;99.90
17986;DHT22;9118;48.122;11.546;2023-08-07T06:55:52;12.40;99.90
17986;DHT22;9118;48.122;11.546;2023-08-07T06:58:19;12.40;99.90
17986;DHT22;9118;48.122;11.546;2023-08-07T07:00:46;12.50;99.90
17986;DHT22;9118;48.122;11.546;2023-08-07T07:03:14;12.50;99.90
17986;DHT22;9118;48.122;11.546;2023-08-07T07:05:42;12.50;99.90
17986;DHT22;9118;48.122;11.546;2023-08-07T07:08:09;12.60;99.90
17986;DHT22;9118;48.122;11.546;2023-08-07T07:10:36;12.80;99.90
17986;DHT22;9118;48.122;11.546;2023-08-07T07:13:03;12.90;99.90
17986;DHT22;9118;48.122;11.546;2023-08-07T07:15:30;12.90;99.90
17986;DHT22;9118;48.122;11.546;2023-08-07T07:17:57;13.00;99.90
17986;DHT22;9118;48.122;11.546;2023-08-07T07:20:25;13.10;99.90
17986;DHT22;9118;48.122;11.546;2023-08-07T07:22:53;13.10;99.90
17986;DHT22;9118;48.122;11.546;2023-08-07T07:25:20;13.20;99.90
17986;DHT22;9118;48.122;11.546;2023-08-07T07:27:47;13.40;99.90
17986;DHT22;9118;48.122;11.546;2023-08-07T07:30:14;13.50;99.90
17986;DHT22;9118;48.122;11.546;2023-08-07T07:32:41;13.60;99.90
17986;DHT22;9118;48.122;11.546;2023-08-07T07:35:08;13.60;99.90
17986;DHT22;9118;48.122;11.546;2023-08-07T07:37:35;13.60;99.90
17986;DHT22;9118;48.122;11.546;2023-08-07T07:40:05;13.70;99.90
17986;DHT22;9118;48.122;11.546;2023-08-07T07:42:32;13.70;99.90
17986;DHT22;9118;48.122;11.546;2023-08-07T07:44:59;13.70;99.90
17986;DHT22;9118;48.122;11.546;2023-08-07T07:47:26;13.70;99.90
17986;DHT22;9118;48.122;11.546;2023-08-07T07:50:05;13.70;99.90
17986;DHT22;9118;48.122;11.546;2023-08-07T07:52:34;13.60;99.90
17986;DHT22;9118;48.122;11.546;2023-08-07T07:55:01;13.60;99.90
17986;DHT22;9118;48.122;11.546;2023-08-07T07:57:29;13.50;99.90
17986;DHT22;9118;48.122;11.546;2023-08-07T07:59:57;13.60;99.90
17986;DHT22;9118;48.122;11.546;2023-08-07T08:02:24;13.60;99.90
17986;DHT22;9118;48.122;11.546;2023-08-07T08:04:51;13.60;99.90
17986;DHT22;9118;48.122;11.546;2023-08-07T08:07:19;13.70;99.90
17986;DHT22;9118;48.122;11.546;2023-08-07T08:09:46;13.80;99.90
17986;DHT22;9118;48.122;11.546;2023-08-07T08:12:13;13.60;99.90
17986;DHT22;9118;48.122;11.546;2023-08-07T08:14:42;13.60;99.90
17986;DHT22;9118;48.122;11.546;2023-08-07T08:17:09;13.70;99.90
17986;DHT22;9118;48.122;11.546;2023-08-07T08:19:36;13.60;99.90
17986;DHT22;9118;48.122;11.546;2023-08-07T08:22:03;13.50;99.90
17986;DHT22;9118;48.122;11.546;2023-08-07T08:24:30;13.60;99.90
17986;DHT22;9118;48.122;11.546;2023-08-07T08:26:58;13.60;99.90
17986;DHT22;9118;48.122;11.546;2023-08-07T08:29:25;13.70;99.90
17986;DHT22;9118;48.122;11.546;2023-08-07T08:31:55;13.70;99.90
17986;DHT22;9118;48.122;11.546;2023-08-07T08:34:22;13.60;99.90
17986;DHT22;9118;48.122;11.546;2023-08-07T08:36:49;13.60;99.90
17986;DHT22;9118;48.122;11.546;2023-08-07T08:39:16;13.50;99.90
17986;DHT22;9118;48.122;11.546;2023-08-07T08:41:46;13.60;99.90
17986;DHT22;9118;48.122;11.546;2023-08-07T08:44:16;13.70;99.90
17986;DHT22;9118;48.122;11.546;2023-08-07T08:46:44;13.70;99.90
17986;DHT22;9118;48.122;11.546;2023-08-07T08:49:16;13.80;99.90
17986;DHT22;9118;48.122;11.546;2023-08-07T08:51:47;13.90;99.90
17986;DHT22;9118;48.122;11.546;2023-08-07T08:54:14;13.90;99.90
17986;DHT22;9118;48.122;11.546;2023-08-07T08:56:42;13.90;99.90
17986;DHT22;9118;48.122;11.546;2023-08-07T08:59:10;13.90;99.90
17986;DHT22;9118;48.122;11.546;2023-08-07T09:01:37;14.00;99.90
17986;DHT22;9118;48.122;11.546;2023-08-07T09:04:05;14.00;99.90
17986;DHT22;9118;48.122;11.546;2023-08-07T09:06:34;14.10;99.90
17986;DHT22;9118;48.122;11.546;2023-08-07T09:09:02;14.10;99.90
17986;DHT22;9118;48.122;11.546;2023-08-07T09:11:30;14.20;99.90
17986;DHT22;9118;48.122;11.546;2023-08-07T09:14:00;14.40;99.90
17986;DHT22;9118;48.122;11.546;2023-08-07T09:16:30;14.40;99.90
17986;DHT22;9118;48.122;11.546;2023-08-07T09:18:58;14.30;99.90
17986;DHT22;9118;48.122;11.546;2023-08-07T09:21:28;14.30;99.90
17986;DHT22;9118;48.122;11.546;2023-08-07T09:23:59;14.20;99.90
17986;DHT22;9118;48.122;11.546;2023-08-07T09:26:32;14.30;99.90
17986;DHT22;9118;48.122;11.546;2023-08-07T09:29:02;14.30;99.90
17986;DHT22;9118;48.122;11.546;2023-08-07T09:31:42;14.30;99.90
17986;DHT22;9118;48.122;11.546;2023-08-07T09:34:21;14.20;99.90
17986;DHT22;9118;48.122;11.546;2023-08-07T09:36:52;14.30;99.90
17986;DHT22;9118;48.122;11.546;2023-08-07T09:39:51;14.20;99.90
17986;DHT22;9118;48.122;11.546;2023-08-07T09:42:30;14.10;99.90
17986;DHT22;9118;48.122;11.546;2023-08-07T09:45:00;14.20;99.90
17986;DHT22;9118;48.122;11.546;2023-08-07T09:47:28;14.40;99.90
17986;DHT22;9118;48.122;11.546;2023-08-07T09:49:55;14.50;99.90
17986;DHT22;9118;48.122;11.546;2023-08-07T09:52:24;14.80;99.90
17986;DHT22;9118;48.122;11.546;2023-08-07T09:54:57;15.00;99.90
17986;DHT22;9118;48.122;11.546;2023-08-07T09:57:25;15.00;99.90
17986;DHT22;9118;48.122;11.546;2023-08-07T09:59:52;14.90;99.90
17986;DHT22;9118;48.122;11.546;2023-08-07T10:02:20;14.80;99.90
17986;DHT22;9118;48.122;11.546;2023-08-07T10:04:48;14.80;99.90
17986;DHT22;9118;48.122;11.546;2023-08-07T10:07:16;14.90;99.90
17986;DHT22;9118;48.122;11.546;2023-08-07T10:09:43;15.00;99.90
17986;DHT22;9118;48.122;11.546;2023-08-07T10:12:12;15.10;99.90
17986;DHT22;9118;48.122;11.546;2023-08-07T10:14:40;15.30;99.90
17986;DHT22;9118;48.122;11.546;2023-08-07T10:17:08;15.30;99.90
17986;DHT22;9118;48.122;11.546;2023-08-07T10:19:35;15.40;99.90
17986;DHT22;9118;48.122;11.546;2023-08-07T10:22:05;15.50;99.90
17986;DHT22;9118;48.122;11.546;2023-08-07T10:24:34;15.70;99.90
17986;DHT22;9118;48.122;11.546;2023-08-07T10:27:02;15.70;99.90
17986;DHT22;9118;48.122;11.546;2023-08-07T10:29:31;15.80;99.90
17986;DHT22;9118;48.122;11.546;2023-08-07T10:31:59;16.00;99.90
17986;DHT22;9118;48.122;11.546;2023-08-07T10:34:28;16.10;99.90
17986;DHT22;9118;48.122;11.546;2023-08-07T10:36:56;16.30;99.90
17986;DHT22;9118;48.122;11.546;2023-08-07T10:39:23;16.40;99.90
17986;DHT22;9118;48.122;11.546;2023-08-07T10:41:53;16.20;99.90
17986;DHT22;9118;48.122;11.546;2023-08-07T10:44:22;16.10;99.90
17986;DHT22;9118;48.122;11.546;2023-08-07T10:46:52;16.00;99.90
17986;DHT22;9118;48.122;11.546;2023-08-07T10:49:33;16.00;99.90
17986;DHT22;9118;48.122;11.546;2023-08-07T10:52:03;16.00;99.90
17986;DHT22;9118;48.122;11.546;2023-08-07T10:54:37;16.00;99.90
17986;DHT22;9118;48.122;11.546;2023-08-07T10:57:10;16.10;99.90
17986;DHT22;9118;48.122;11.546;2023-08-07T10:59:37;16.20;99.90
17986;DHT22;9118;48.122;11.546;2023-08-07T11:02:08;16.30;99.90
17986;DHT22;9118;48.122;11.546;2023-08-07T11:04:38;16.30;99.90
17986;DHT22;9118;48.122;11.546;2023-08-07T11:07:05;16.40;99.90
17986;DHT22;9118;48.122;11.546;2023-08-07T11:09:33;16.50;99.90
17986;DHT22;9118;48.122;11.546;2023-08-07T11:12:01;16.60;99.90
17986;DHT22;9118;48.122;11.546;2023-08-07T11:14:28;16.80;99.90
17986;DHT22;9118;48.122;11.546;2023-08-07T11:16:55;17.20;99.90
17986;DHT22;9118;48.122;11.546;2023-08-07T11:19:24;17.40;99.90
17986;DHT22;9118;48.122;11.546;2023-08-07T11:21:53;17.60;99.90
17986;DHT22;9118;48.122;11.546;2023-08-07T11:24:22;17.70;99.90
17986;DHT22;9118;48.122;11.546;2023-08-07T11:26:49;17.50;99.90
17986;DHT22;9118;48.122;11.546;2023-08-07T11:29:18;17.30;99.90
17986;DHT22;9118;48.122;11.546;2023-08-07T11:32:04;17.10;99.90
17986;DHT22;9118;48.122;11.546;2023-08-07T11:34:33;17.00;99.90
17986;DHT22;9118;48.122;11.546;2023-08-07T11:37:01;17.10;99.90
17986;DHT22;9118;48.122;11.546;2023-08-07T11:39:29;17.00;99.90
17986;DHT22;9118;48.122;11.546;2023-08-07T11:41:56;16.80;99.90
17986;DHT22;9118;48.122;11.546;2023-08-07T11:44:23;16.50;99.90
17986;DHT22;9118;48.122;11.546;2023-08-07T11:46:53;16.30;99.90
17986;DHT22;9118;48.122;11.546;2023-08-07T11:49:20;16.10;99.90
17986;DHT22;9118;48.122;11.546;2023-08-07T11:51:48;16.00;99.90
17986;DHT22;9118;48.122;11.546;2023-08-07T11:54:16;16.00;99.90
17986;DHT22;9118;48.122;11.546;2023-08-07T11:56:45;16.10;99.90
17986;DHT22;9118;48.122;11.546;2023-08-07T11:59:16;16.10;99.90
17986;DHT22;9118;48.122;11.546;2023-08-07T12:01:47;16.20;99.90
17986;DHT22;9118;48.122;11.546;2023-08-07T12:04:17;16.30;99.90
17986;DHT22;9118;48.122;11.546;2023-08-07T12:06:57;16.20;99.90
17986;DHT22;9118;48.122;11.546;2023-08-07T12:09:26;15.70;99.90
17986;DHT22;9118;48.122;11.546;2023-08-07T12:12:00;16.20;99.90
17986;DHT22;9118;48.122;11.546;2023-08-07T12:14:30;16.20;99.90
17986;DHT22;9118;48.122;11.546;2023-08-07T12:16:57;16.40;99.90
17986;DHT22;9118;48.122;11.546;2023-08-07T12:19:25;16.40;99.90
17986;DHT22;9118;48.122;11.546;2023-08-07T12:22:06;16.40;99.90
17986;DHT22;9118;48.122;11.546;2023-08-07T12:24:35;16.50;99.90
17986;DHT22;9118;48.122;11.546;2023-08-07T12:27:04;16.60;99.90
17986;DHT22;9118;48.122;11.546;2023-08-07T12:29:32;16.90;99.90
17986;DHT22;9118;48.122;11.546;2023-08-07T12:32:01;17.10;99.90
17986;DHT22;9118;48.122;11.546;2023-08-07T12:34:32;17.30;99.90
17986;DHT22;9118;48.122;11.546;2023-08-07T12:36:59;17.40;99.90
17986;DHT22;9118;48.122;11.546;2023-08-07T12:39:28;17.50;99.90
17986;DHT22;9118;48.122;11.546;2023-08-07T12:41:55;17.80;99.90
17986;DHT22;9118;48.122;11.546;2023-08-07T12:44:23;17.70;99.90
17986;DHT22;9118;48.122;11.546;2023-08-07T12:46:50;17.80;99.90
17986;DHT22;9118;48.122;11.546;2023-08-07T12:49:18;17.60;99.90
17986;DHT22;9118;48.122;11.546;2023-08-07T12:51:47;17.50;99.90
17986;DHT22;9118;48.122;11.546;2023-08-07T12:54:14;17.30;99.90
17986;DHT22;9118;48.122;11.546;2023-08-07T12:56:43;17.00;99.90
17986;DHT22;9118;48.122;11.546;2023-08-07T12:59:10;17.10;99.90
17986;DHT22;9118;48.122;11.546;2023-08-07T13:01:40;17.10;99.90
17986;DHT22;9118;48.122;11.546;2023-08-07T13:04:09;17.10;99.90
17986;DHT22;9118;48.122;11.546;2023-08-07T13:06:42;17.10;99.90
17986;DHT22;9118;48.122;11.546;2023-08-07T13:09:13;17.10;99.90
17986;DHT22;9118;48.122;11.546;2023-08-07T13:15:56;17.10;99.90
17986;DHT22;9118;48.122;11.546;2023-08-07T13:18:24;17.30;99.90
17986;DHT22;9118;48.122;11.546;2023-08-07T13:20:51;17.70;99.90
17986;DHT22;9118;48.122;11.546;2023-08-07T13:23:23;17.70;99.90
17986;DHT22;9118;48.122;11.546;2023-08-07T13:25:50;17.70;99.90
17986;DHT22;9118;48.122;11.546;2023-08-07T13:30:48;17.90;99.90
17986;DHT22;9118;48.122;11.546;2023-08-07T13:33:17;17.80;99.90
17986;DHT22;9118;48.122;11.546;2023-08-07T13:35:45;17.60;99.90
17986;DHT22;9118;48.122;11.546;2023-08-07T13:38:12;17.30;99.90
17986;DHT22;9118;48.122;11.546;2023-08-07T13:40:41;17.00;99.90
17986;DHT22;9118;48.122;11.546;2023-08-07T13:43:11;16.90;99.90
17986;DHT22;9118;48.122;11.546;2023-08-07T13:45:40;16.90;99.90
17986;DHT22;9118;48.122;11.546;2023-08-07T13:48:09;17.10;99.90
17986;DHT22;9118;48.122;11.546;2023-08-07T13:50:41;17.00;99.90
17986;DHT22;9118;48.122;11.546;2023-08-07T13:53:10;17.20;99.90
17986;DHT22;9118;48.122;11.546;2023-08-07T13:55:40;17.30;99.90
17986;DHT22;9118;48.122;11.546;2023-08-07T13:58:07;17.40;99.90
17986;DHT22;9118;48.122;11.546;2023-08-07T14:00:35;17.60;99.90
17986;DHT22;9118;48.122;11.546;2023-08-07T14:03:06;17.70;99.90
17986;DHT22;9118;48.122;11.546;2023-08-07T14:05:33;18.00;99.90
17986;DHT22;9118;48.122;11.546;2023-08-07T14:08:07;18.00;99.90
17986;DHT22;9118;48.122;11.546;2023-08-07T14:10:38;18.00;99.90
17986;DHT22;9118;48.122;11.546;2023-08-07T14:13:06;17.70;99.90
17986;DHT22;9118;48.122;11.546;2023-08-07T14:15:35;17.40;99.90
17986;DHT22;9118;48.122;11.546;2023-08-07T14:18:06;17.30;99.90
17986;DHT22;9118;48.122;11.546;2023-08-07T14:20:36;17.40;99.90
17986;DHT22;9118;48.122;11.546;2023-08-07T14:23:07;17.60;99.90
17986;DHT22;9118;48.122;11.546;2023-08-07T14:25:34;17.60;99.90
17986;DHT22;9118;48.122;11.546;2023-08-07T14:28:01;17.20;99.90
17986;DHT22;9118;48.122;11.546;2023-08-07T14:30:33;17.20;99.90
17986;DHT22;9118;48.122;11.546;2023-08-07T14:33:00;17.10;99.90
17986;DHT22;9118;48.122;11.546;2023-08-07T14:35:27;17.20;99.90
17986;DHT22;9118;48.122;11.546;2023-08-07T14:38:05;16.80;99.90
17986;DHT22;9118;48.122;11.546;2023-08-07T14:43:45;17.20;99.90
17986;DHT22;9118;48.122;11.546;2023-08-07T14:46:29;17.00;99.90
17986;DHT22;9118;48.122;11.546;2023-08-07T14:49:11;16.80;99.90
17986;DHT22;9118;48.122;11.546;2023-08-07T14:51:46;16.50;99.90
17986;DHT22;9118;48.122;11.546;2023-08-07T14:54:17;16.40;99.90
17986;DHT22;9118;48.122;11.546;2023-08-07T14:56:48;16.20;99.90
17986;DHT22;9118;48.122;11.546;2023-08-07T14:59:43;16.20;99.90
17986;DHT22;9118;48.122;11.546;2023-08-07T15:02:24;16.30;99.90
17986;DHT22;9118;48.122;11.546;2023-08-07T15:05:01;16.60;99.90
17986;DHT22;9118;48.122;11.546;2023-08-07T15:12:58;16.60;99.90
17986;DHT22;9118;48.122;11.546;2023-08-07T15:15:42;16.40;99.90
17986;DHT22;9118;48.122;11.546;2023-08-07T15:18:11;16.30;99.90
17986;DHT22;9118;48.122;11.546;2023-08-07T15:20:38;16.30;99.90
17986;DHT22;9118;48.122;11.546;2023-08-07T15:23:06;16.20;99.90
17986;DHT22;9118;48.122;11.546;2023-08-07T15:25:38;16.30;99.90
17986;DHT22;9118;48.122;11.546;2023-08-07T15:28:05;16.50;99.90
17986;DHT22;9118;48.122;11.546;2023-08-07T15:30:34;16.70;99.90
17986;DHT22;9118;48.122;11.546;2023-08-07T15:33:01;17.20;99.90
17986;DHT22;9118;48.122;11.546;2023-08-07T15:35:29;18.10;99.90
17986;DHT22;9118;48.122;11.546;2023-08-07T15:37:57;19.30;99.90
17986;DHT22;9118;48.122;11.546;2023-08-07T15:40:26;20.00;99.90
17986;DHT22;9118;48.122;11.546;2023-08-07T15:42:53;19.70;99.90
17986;DHT22;9118;48.122;11.546;2023-08-07T15:45:20;19.30;99.90
17986;DHT22;9118;48.122;11.546;2023-08-07T15:47:52;19.00;99.90
17986;DHT22;9118;48.122;11.546;2023-08-07T15:50:21;18.40;99.90
17986;DHT22;9118;48.122;11.546;2023-08-07T15:52:49;17.80;99.90
17986;DHT22;9118;48.122;11.546;2023-08-07T15:55:16;17.20;99.90